sensor_id;sensor_type;location;lat;lon;timestamp;temperature;humidity
42979;DHT22;28616;44.746;19.678;2023-02-02T00:02:04;3.80;99.90
42979;DHT22;28616;44.746;19.678;2023-02-02T00:04:33;3.80;99.90
42979;DHT22;28616;44.746;19.678;2023-02-02T00:06:59;3.80;99.90
42979;DHT22;28616;44.746;19.678;2023-02-02T00:09:28;3.90;99.90
42979;DHT22;28616;44.746;19.678;2023-02-02T00:11:54;3.90;99.90
42979;DHT22;28616;44.746;19.678;2023-02-02T00:14:20;4.00;99.90
42979;DHT22;28616;44.746;19.678;2023-02-02T00:16:50;4.00;99.90
42979;DHT22;28616;44.746;19.678;2023-02-02T00:19:21;4.10;99.90
42979;DHT22;28616;44.746;19.678;2023-02-02T00:21:47;4.20;99.90
42979;DHT22;28616;44.746;19.678;2023-02-02T00:24:16;4.20;99.90
42979;DHT22;28616;44.746;19.678;2023-02-02T00:26:52;4.20;99.90
42979;DHT22;28616;44.746;19.678;2023-02-02T00:29:23;4.20;99.90
42979;DHT22;28616;44.746;19.678;2023-02-02T00:31:49;4.20;99.90
42979;DHT22;28616;44.746;19.678;2023-02-02T00:34:16;4.20;99.90
42979;DHT22;28616;44.746;19.678;2023-02-02T00:36:42;4.20;99.90
42979;DHT22;28616;44.746;19.678;2023-02-02T00:39:09;4.30;99.90
42979;DHT22;28616;44.746;19.678;2023-02-02T00:41:35;4.30;99.90
42979;DHT22;28616;44.746;19.678;2023-02-02T00:44:01;4.30;99.90
42979;DHT22;28616;44.746;19.678;2023-02-02T00:46:45;4.40;99.90
42979;DHT22;28616;44.746;19.678;2023-02-02T00:49:10;4.40;99.90
42979;DHT22;28616;44.746;19.678;2023-02-02T00:51:37;4.40;99.90
42979;DHT22;28616;44.746;19.678;2023-02-02T00:54:03;4.40;99.90
42979;DHT22;28616;44.746;19.678;2023-02-02T00:56:29;4.40;99.90
42979;DHT22;28616;44.746;19.678;2023-02-02T00:58:55;4.40;99.90
42979;DHT22;28616;44.746;19.678;2023-02-02T01:01:21;4.40;99.90
42979;DHT22;28616;44.746;19.678;2023-02-02T01:03:48;4.50;99.90
42979;DHT22;28616;44.746;19.678;2023-02-02T01:06:14;4.40;99.90
42979;DHT22;28616;44.746;19.678;2023-02-02T01:08:40;4.40;99.90
42979;DHT22;28616;44.746;19.678;2023-02-02T01:11:06;4.50;99.90
42979;DHT22;28616;44.746;19.678;2023-02-02T01:13:32;4.50;99.90
42979;DHT22;28616;44.746;19.678;2023-02-02T01:15:59;4.50;99.90
42979;DHT22;28616;44.746;19.678;2023-02-02T01:18:26;4.50;99.90
42979;DHT22;28616;44.746;19.678;2023-02-02T01:21:03;4.60;99.90
42979;DHT22;28616;44.746;19.678;2023-02-02T01:23:30;4.60;99.90
42979;DHT22;28616;44.746;19.678;2023-02-02T01:25:58;4.50;99.90
42979;DHT22;28616;44.746;19.678;2023-02-02T01:28:25;4.50;99.90
42979;DHT22;28616;44.746;19.678;2023-02-02T01:30:51;4.50;99.90
42979;DHT22;28616;44.746;19.678;2023-02-02T01:33:17;4.50;99.90
42979;DHT22;28616;44.746;19.678;2023-02-02T01:35:50;4.70;99.90
42979;DHT22;28616;44.746;19.678;2023-02-02T01:38:16;4.70;99.90
42979;DHT22;28616;44.746;19.678;2023-02-02T01:40:54;4.70;99.90
42979;DHT22;28616;44.746;19.678;2023-02-02T01:43:24;4.80;99.90
42979;DHT22;28616;44.746;19.678;2023-02-02T01:45:51;5.10;99.90
42979;DHT22;28616;44.746;19.678;2023-02-02T01:48:23;5.20;99.90
42979;DHT22;28616;44.746;19.678;2023-02-02T01:50:53;5.10;99.90
42979;DHT22;28616;44.746;19.678;2023-02-02T01:53:21;5.10;99.90
42979;DHT22;28616;44.746;19.678;2023-02-02T01:55:48;5.00;99.90
42979;DHT22;28616;44.746;19.678;2023-02-02T01:58:21;5.00;99.90
42979;DHT22;28616;44.746;19.678;2023-02-02T02:00:47;4.90;99.90
42979;DHT22;28616;44.746;19.678;2023-02-02T02:03:17;4.90;99.90
42979;DHT22;28616;44.746;19.678;2023-02-02T02:05:48;4.80;99.90
42979;DHT22;28616;44.746;19.678;2023-02-02T02:08:22;4.80;99.90
42979;DHT22;28616;44.746;19.678;2023-02-02T02:10:49;4.80;99.90
42979;DHT22;28616;44.746;19.678;2023-02-02T02:13:15;4.80;99.90
42979;DHT22;28616;44.746;19.678;2023-02-02T02:15:56;5.00;99.90
42979;DHT22;28616;44.746;19.678;2023-02-02T02:31:10;5.40;99.90
42979;DHT22;28616;44.746;19.678;2023-02-02T02:36:50;5.30;99.90
42979;DHT22;28616;44.746;19.678;2023-02-02T02:41:56;5.40;99.90
42979;DHT22;28616;44.746;19.678;2023-02-02T02:44:24;5.40;99.90
42979;DHT22;28616;44.746;19.678;2023-02-02T02:46:52;5.40;99.90
42979;DHT22;28616;44.746;19.678;2023-02-02T02:49:18;5.50;99.90
42979;DHT22;28616;44.746;19.678;2023-02-02T02:51:51;5.50;99.90
42979;DHT22;28616;44.746;19.678;2023-02-02T02:54:32;5.40;99.90
42979;DHT22;28616;44.746;19.678;2023-02-02T03:02:50;5.20;99.90
42979;DHT22;28616;44.746;19.678;2023-02-02T03:10:29;5.00;99.90
42979;DHT22;28616;44.746;19.678;2023-02-02T03:12:55;5.00;99.90
42979;DHT22;28616;44.746;19.678;2023-02-02T03:15:22;5.20;99.90
42979;DHT22;28616;44.746;19.678;2023-02-02T03:17:49;5.30;99.90
42979;DHT22;28616;44.746;19.678;2023-02-02T03:20:17;5.40;99.90
42979;DHT22;28616;44.746;19.678;2023-02-02T03:22:43;5.50;99.90
42979;DHT22;28616;44.746;19.678;2023-02-02T03:25:08;5.40;99.90
42979;DHT22;28616;44.746;19.678;2023-02-02T03:27:37;5.30;99.90
42979;DHT22;28616;44.746;19.678;2023-02-02T03:30:05;5.30;99.90
42979;DHT22;28616;44.746;19.678;2023-02-02T03:32:33;5.20;99.90
42979;DHT22;28616;44.746;19.678;2023-02-02T03:34:58;5.20;99.90
42979;DHT22;28616;44.746;19.678;2023-02-02T03:37:24;5.10;99.90
42979;DHT22;28616;44.746;19.678;2023-02-02T03:39:50;5.00;99.90
42979;DHT22;28616;44.746;19.678;2023-02-02T03:42:16;4.90;99.90
42979;DHT22;28616;44.746;19.678;2023-02-02T03:44:42;4.80;99.90
42979;DHT22;28616;44.746;19.678;2023-02-02T03:47:07;4.80;99.90
42979;DHT22;28616;44.746;19.678;2023-02-02T03:49:33;4.70;99.90
42979;DHT22;28616;44.746;19.678;2023-02-02T03:51:59;4.60;99.90
42979;DHT22;28616;44.746;19.678;2023-02-02T03:54:27;4.60;99.90
42979;DHT22;28616;44.746;19.678;2023-02-02T03:56:53;4.50;99.90
42979;DHT22;28616;44.746;19.678;2023-02-02T03:59:18;4.40;99.90
42979;DHT22;28616;44.746;19.678;2023-02-02T04:01:44;4.30;99.90
42979;DHT22;28616;44.746;19.678;2023-02-02T04:04:10;4.20;99.90
42979;DHT22;28616;44.746;19.678;2023-02-02T04:06:35;4.10;99.90
42979;DHT22;28616;44.746;19.678;2023-02-02T04:09:01;4.00;99.90
42979;DHT22;28616;44.746;19.678;2023-02-02T04:11:27;4.10;99.90
42979;DHT22;28616;44.746;19.678;2023-02-02T04:13:53;4.10;99.90
42979;DHT22;28616;44.746;19.678;2023-02-02T04:16:18;4.00;99.90
42979;DHT22;28616;44.746;19.678;2023-02-02T04:18:44;3.90;99.90
42979;DHT22;28616;44.746;19.678;2023-02-02T04:21:10;3.90;99.90
42979;DHT22;28616;44.746;19.678;2023-02-02T04:23:36;3.80;99.90
42979;DHT22;28616;44.746;19.678;2023-02-02T04:26:02;3.70;99.90
42979;DHT22;28616;44.746;19.678;2023-02-02T04:28:28;3.70;99.90
42979;DHT22;28616;44.746;19.678;2023-02-02T04:30:55;3.60;99.90
42979;DHT22;28616;44.746;19.678;2023-02-02T04:33:22;3.50;99.90
42979;DHT22;28616;44.746;19.678;2023-02-02T04:35:48;3.40;99.90
42979;DHT22;28616;44.746;19.678;2023-02-02T04:38:13;3.30;99.90
42979;DHT22;28616;44.746;19.678;2023-02-02T04:40:44;3.30;99.90
42979;DHT22;28616;44.746;19.678;2023-02-02T04:43:10;3.20;99.90
42979;DHT22;28616;44.746;19.678;2023-02-02T04:45:37;3.10;99.90
42979;DHT22;28616;44.746;19.678;2023-02-02T04:48:03;3.10;99.90
42979;DHT22;28616;44.746;19.678;2023-02-02T04:50:29;3.00;99.90
42979;DHT22;28616;44.746;19.678;2023-02-02T04:52:55;3.00;99.90
42979;DHT22;28616;44.746;19.678;2023-02-02T04:55:21;3.00;99.90
42979;DHT22;28616;44.746;19.678;2023-02-02T04:57:47;2.90;99.90
42979;DHT22;28616;44.746;19.678;2023-02-02T05:00:14;2.90;99.90
42979;DHT22;28616;44.746;19.678;2023-02-02T05:02:40;2.90;99.90
42979;DHT22;28616;44.746;19.678;2023-02-02T05:05:08;2.90;99.90
42979;DHT22;28616;44.746;19.678;2023-02-02T05:07:35;2.90;99.90
42979;DHT22;28616;44.746;19.678;2023-02-02T05:10:02;3.00;99.90
42979;DHT22;28616;44.746;19.678;2023-02-02T05:12:29;3.00;99.90
42979;DHT22;28616;44.746;19.678;2023-02-02T05:14:55;3.00;99.90
42979;DHT22;28616;44.746;19.678;2023-02-02T05:17:20;3.00;99.90
42979;DHT22;28616;44.746;19.678;2023-02-02T05:19:46;3.00;99.90
42979;DHT22;28616;44.746;19.678;2023-02-02T05:22:11;3.00;99.90
42979;DHT22;28616;44.746;19.678;2023-02-02T05:24:37;3.00;99.90
42979;DHT22;28616;44.746;19.678;2023-02-02T05:27:03;3.00;99.90
42979;DHT22;28616;44.746;19.678;2023-02-02T05:29:29;3.00;99.90
42979;DHT22;28616;44.746;19.678;2023-02-02T05:31:56;3.00;99.90
42979;DHT22;28616;44.746;19.678;2023-02-02T05:34:22;3.00;99.90
42979;DHT22;28616;44.746;19.678;2023-02-02T05:36:48;2.90;99.90
42979;DHT22;28616;44.746;19.678;2023-02-02T05:39:14;3.00;99.90
42979;DHT22;28616;44.746;19.678;2023-02-02T05:41:40;2.90;99.90
42979;DHT22;28616;44.746;19.678;2023-02-02T05:44:07;2.90;99.90
42979;DHT22;28616;44.746;19.678;2023-02-02T05:46:35;2.90;99.90
42979;DHT22;28616;44.746;19.678;2023-02-02T05:49:01;2.90;99.90
42979;DHT22;28616;44.746;19.678;2023-02-02T05:51:33;2.90;99.90
42979;DHT22;28616;44.746;19.678;2023-02-02T05:54:01;2.90;99.90
42979;DHT22;28616;44.746;19.678;2023-02-02T05:56:26;2.90;99.90
42979;DHT22;28616;44.746;19.678;2023-02-02T05:58:52;2.90;99.90
42979;DHT22;28616;44.746;19.678;2023-02-02T06:01:18;2.90;99.90
42979;DHT22;28616;44.746;19.678;2023-02-02T06:03:45;2.90;99.90
42979;DHT22;28616;44.746;19.678;2023-02-02T06:06:11;3.00;99.90
42979;DHT22;28616;44.746;19.678;2023-02-02T06:08:37;3.00;99.90
42979;DHT22;28616;44.746;19.678;2023-02-02T06:11:10;3.00;99.90
42979;DHT22;28616;44.746;19.678;2023-02-02T06:13:36;3.00;99.90
42979;DHT22;28616;44.746;19.678;2023-02-02T06:16:02;3.10;99.90
42979;DHT22;28616;44.746;19.678;2023-02-02T06:18:28;3.10;99.90
42979;DHT22;28616;44.746;19.678;2023-02-02T06:21:01;3.20;99.90
42979;DHT22;28616;44.746;19.678;2023-02-02T06:23:27;3.20;99.90
42979;DHT22;28616;44.746;19.678;2023-02-02T06:25:53;3.20;99.90
42979;DHT22;28616;44.746;19.678;2023-02-02T06:28:19;3.30;99.90
42979;DHT22;28616;44.746;19.678;2023-02-02T06:30:44;3.30;99.90
42979;DHT22;28616;44.746;19.678;2023-02-02T06:33:10;3.30;99.90
42979;DHT22;28616;44.746;19.678;2023-02-02T06:35:36;3.30;99.90
42979;DHT22;28616;44.746;19.678;2023-02-02T06:38:02;3.30;99.90
42979;DHT22;28616;44.746;19.678;2023-02-02T06:40:28;3.40;99.90
42979;DHT22;28616;44.746;19.678;2023-02-02T06:43:01;3.40;99.90
42979;DHT22;28616;44.746;19.678;2023-02-02T06:45:29;3.50;99.90
42979;DHT22;28616;44.746;19.678;2023-02-02T06:47:59;3.50;99.90
42979;DHT22;28616;44.746;19.678;2023-02-02T06:50:29;3.60;99.90
42979;DHT22;28616;44.746;19.678;2023-02-02T06:52:55;3.60;99.90
42979;DHT22;28616;44.746;19.678;2023-02-02T06:55:21;3.60;99.90
42979;DHT22;28616;44.746;19.678;2023-02-02T06:57:46;3.60;99.90
42979;DHT22;28616;44.746;19.678;2023-02-02T07:00:12;3.60;99.90
42979;DHT22;28616;44.746;19.678;2023-02-02T07:02:38;3.60;99.90
42979;DHT22;28616;44.746;19.678;2023-02-02T07:05:05;3.50;99.90
42979;DHT22;28616;44.746;19.678;2023-02-02T07:07:32;3.50;99.90
42979;DHT22;28616;44.746;19.678;2023-02-02T07:09:57;3.60;99.90
42979;DHT22;28616;44.746;19.678;2023-02-02T07:12:23;3.60;99.90
42979;DHT22;28616;44.746;19.678;2023-02-02T07:14:51;3.70;99.90
42979;DHT22;28616;44.746;19.678;2023-02-02T07:17:17;3.80;99.90
42979;DHT22;28616;44.746;19.678;2023-02-02T07:19:42;4.00;99.90
42979;DHT22;28616;44.746;19.678;2023-02-02T07:22:08;4.20;99.90
42979;DHT22;28616;44.746;19.678;2023-02-02T07:24:34;4.40;99.90
42979;DHT22;28616;44.746;19.678;2023-02-02T07:27:03;4.40;99.90
42979;DHT22;28616;44.746;19.678;2023-02-02T07:29:29;4.40;99.90
42979;DHT22;28616;44.746;19.678;2023-02-02T07:31:54;4.40;99.90
42979;DHT22;28616;44.746;19.678;2023-02-02T07:34:20;4.50;99.90
42979;DHT22;28616;44.746;19.678;2023-02-02T07:36:46;4.50;99.90
42979;DHT22;28616;44.746;19.678;2023-02-02T07:39:12;4.50;99.90
42979;DHT22;28616;44.746;19.678;2023-02-02T07:41:38;4.60;99.90
42979;DHT22;28616;44.746;19.678;2023-02-02T07:44:04;4.60;99.90
42979;DHT22;28616;44.746;19.678;2023-02-02T07:46:31;4.60;99.90
42979;DHT22;28616;44.746;19.678;2023-02-02T07:48:57;4.60;99.90
42979;DHT22;28616;44.746;19.678;2023-02-02T07:51:24;4.70;99.90
42979;DHT22;28616;44.746;19.678;2023-02-02T07:53:52;4.70;99.90
42979;DHT22;28616;44.746;19.678;2023-02-02T07:56:20;4.70;99.90
42979;DHT22;28616;44.746;19.678;2023-02-02T07:58:46;4.60;99.90
42979;DHT22;28616;44.746;19.678;2023-02-02T08:01:13;4.70;99.90
42979;DHT22;28616;44.746;19.678;2023-02-02T08:03:40;4.60;99.90
42979;DHT22;28616;44.746;19.678;2023-02-02T08:06:24;4.60;99.90
42979;DHT22;28616;44.746;19.678;2023-02-02T08:08:50;4.60;99.90
42979;DHT22;28616;44.746;19.678;2023-02-02T08:11:18;4.50;99.90
42979;DHT22;28616;44.746;19.678;2023-02-02T08:13:48;4.50;99.90
42979;DHT22;28616;44.746;19.678;2023-02-02T08:16:14;4.50;99.90
42979;DHT22;28616;44.746;19.678;2023-02-02T08:18:39;4.50;99.90
42979;DHT22;28616;44.746;19.678;2023-02-02T08:21:08;4.50;99.90
42979;DHT22;28616;44.746;19.678;2023-02-02T08:23:34;4.50;99.90
42979;DHT22;28616;44.746;19.678;2023-02-02T08:26:12;4.50;99.90
42979;DHT22;28616;44.746;19.678;2023-02-02T08:28:40;4.50;99.90
42979;DHT22;28616;44.746;19.678;2023-02-02T08:31:18;4.50;99.90
42979;DHT22;28616;44.746;19.678;2023-02-02T08:33:44;4.60;99.90
42979;DHT22;28616;44.746;19.678;2023-02-02T08:36:14;4.60;99.90
42979;DHT22;28616;44.746;19.678;2023-02-02T08:38:40;4.50;99.90
42979;DHT22;28616;44.746;19.678;2023-02-02T08:41:08;4.60;99.90
42979;DHT22;28616;44.746;19.678;2023-02-02T08:43:34;4.60;99.90
42979;DHT22;28616;44.746;19.678;2023-02-02T08:46:00;4.60;99.90
42979;DHT22;28616;44.746;19.678;2023-02-02T08:48:26;4.60;99.90
42979;DHT22;28616;44.746;19.678;2023-02-02T08:50:53;4.60;99.90
42979;DHT22;28616;44.746;19.678;2023-02-02T08:53:19;4.60;99.90
42979;DHT22;28616;44.746;19.678;2023-02-02T08:55:45;4.70;99.90
42979;DHT22;28616;44.746;19.678;2023-02-02T08:58:11;4.80;99.90
42979;DHT22;28616;44.746;19.678;2023-02-02T09:00:36;4.80;99.90
42979;DHT22;28616;44.746;19.678;2023-02-02T09:03:02;4.90;99.90
42979;DHT22;28616;44.746;19.678;2023-02-02T09:05:28;4.90;99.90
42979;DHT22;28616;44.746;19.678;2023-02-02T09:07:54;4.90;99.90
42979;DHT22;28616;44.746;19.678;2023-02-02T09:10:19;4.90;99.90
42979;DHT22;28616;44.746;19.678;2023-02-02T09:12:45;5.00;99.90
42979;DHT22;28616;44.746;19.678;2023-02-02T09:15:14;5.00;99.90
42979;DHT22;28616;44.746;19.678;2023-02-02T09:17:39;4.90;99.90
42979;DHT22;28616;44.746;19.678;2023-02-02T09:20:05;4.90;99.90
42979;DHT22;28616;44.746;19.678;2023-02-02T09:22:32;5.00;99.90
42979;DHT22;28616;44.746;19.678;2023-02-02T09:24:57;5.10;99.90
42979;DHT22;28616;44.746;19.678;2023-02-02T09:27:23;5.20;99.90
42979;DHT22;28616;44.746;19.678;2023-02-02T09:29:49;5.20;99.90
42979;DHT22;28616;44.746;19.678;2023-02-02T09:32:15;5.30;99.90
42979;DHT22;28616;44.746;19.678;2023-02-02T09:34:41;5.40;99.90
42979;DHT22;28616;44.746;19.678;2023-02-02T09:37:07;5.40;99.90
42979;DHT22;28616;44.746;19.678;2023-02-02T09:39:33;5.60;99.90
42979;DHT22;28616;44.746;19.678;2023-02-02T09:47:19;5.70;99.90
42979;DHT22;28616;44.746;19.678;2023-02-02T09:55:12;5.50;99.90
42979;DHT22;28616;44.746;19.678;2023-02-02T09:57:57;5.60;99.90
42979;DHT22;28616;44.746;19.678;2023-02-02T10:00:34;5.60;99.90
42979;DHT22;28616;44.746;19.678;2023-02-02T10:03:05;5.70;99.90
42979;DHT22;28616;44.746;19.678;2023-02-02T10:06:03;5.70;99.90
42979;DHT22;28616;44.746;19.678;2023-02-02T10:08:35;5.90;99.90
42979;DHT22;28616;44.746;19.678;2023-02-02T10:11:31;6.00;99.90
42979;DHT22;28616;44.746;19.678;2023-02-02T10:14:06;6.10;99.90
42979;DHT22;28616;44.746;19.678;2023-02-02T10:16:35;6.20;99.90
42979;DHT22;28616;44.746;19.678;2023-02-02T10:19:10;6.30;99.90
42979;DHT22;28616;44.746;19.678;2023-02-02T10:24:27;6.40;99.90
42979;DHT22;28616;44.746;19.678;2023-02-02T10:26:58;6.40;99.90
42979;DHT22;28616;44.746;19.678;2023-02-02T10:29:57;6.40;99.90
42979;DHT22;28616;44.746;19.678;2023-02-02T10:32:47;6.70;99.90
42979;DHT22;28616;44.746;19.678;2023-02-02T10:42:08;7.20;99.90
42979;DHT22;28616;44.746;19.678;2023-02-02T10:44:39;7.30;99.90
42979;DHT22;28616;44.746;19.678;2023-02-02T10:47:10;7.30;99.90
42979;DHT22;28616;44.746;19.678;2023-02-02T10:49:39;7.50;99.90
42979;DHT22;28616;44.746;19.678;2023-02-02T10:54:43;7.80;99.90
42979;DHT22;28616;44.746;19.678;2023-02-02T10:57:15;7.90;99.90
42979;DHT22;28616;44.746;19.678;2023-02-02T11:00:07;8.10;99.90
42979;DHT22;28616;44.746;19.678;2023-02-02T11:02:35;7.90;99.90
42979;DHT22;28616;44.746;19.678;2023-02-02T11:05:01;7.60;99.90
42979;DHT22;28616;44.746;19.678;2023-02-02T11:07:45;7.30;99.90
42979;DHT22;28616;44.746;19.678;2023-02-02T11:10:11;7.10;99.90
42979;DHT22;28616;44.746;19.678;2023-02-02T11:12:41;7.10;99.90
42979;DHT22;28616;44.746;19.678;2023-02-02T11:15:23;7.10;99.90
42979;DHT22;28616;44.746;19.678;2023-02-02T11:17:49;7.00;99.90
42979;DHT22;28616;44.746;19.678;2023-02-02T11:20:35;7.00;99.90
42979;DHT22;28616;44.746;19.678;2023-02-02T11:23:04;6.90;99.90
42979;DHT22;28616;44.746;19.678;2023-02-02T11:25:38;7.00;99.90
42979;DHT22;28616;44.746;19.678;2023-02-02T11:28:18;7.00;99.90
42979;DHT22;28616;44.746;19.678;2023-02-02T11:30:46;6.90;99.90
42979;DHT22;28616;44.746;19.678;2023-02-02T11:38:26;6.80;99.90
42979;DHT22;28616;44.746;19.678;2023-02-02T11:43:33;6.80;99.90
42979;DHT22;28616;44.746;19.678;2023-02-02T11:46:15;6.80;99.90
42979;DHT22;28616;44.746;19.678;2023-02-02T11:49:00;6.90;99.90
42979;DHT22;28616;44.746;19.678;2023-02-02T11:51:28;7.00;99.90
42979;DHT22;28616;44.746;19.678;2023-02-02T11:54:16;7.00;99.90
42979;DHT22;28616;44.746;19.678;2023-02-02T11:56:49;7.00;99.90
42979;DHT22;28616;44.746;19.678;2023-02-02T11:59:29;7.10;99.90
42979;DHT22;28616;44.746;19.678;2023-02-02T12:02:28;7.20;99.90
42979;DHT22;28616;44.746;19.678;2023-02-02T12:07:43;7.10;99.90
42979;DHT22;28616;44.746;19.678;2023-02-02T12:59:56;7.50;98.00
42979;DHT22;28616;44.746;19.678;2023-02-02T13:08:11;7.40;97.50
42979;DHT22;28616;44.746;19.678;2023-02-02T13:10:39;7.40;98.50
42979;DHT22;28616;44.746;19.678;2023-02-02T13:13:25;7.40;99.10
42979;DHT22;28616;44.746;19.678;2023-02-02T13:15:58;7.40;98.70
42979;DHT22;28616;44.746;19.678;2023-02-02T13:19:10;7.30;97.30
42979;DHT22;28616;44.746;19.678;2023-02-02T13:21:35;7.40;97.80
42979;DHT22;28616;44.746;19.678;2023-02-02T13:24:04;7.40;98.20
42979;DHT22;28616;44.746;19.678;2023-02-02T13:26:35;7.30;98.30
42979;DHT22;28616;44.746;19.678;2023-02-02T13:34:50;7.30;97.80
42979;DHT22;28616;44.746;19.678;2023-02-02T13:39:58;7.30;98.00
42979;DHT22;28616;44.746;19.678;2023-02-02T13:42:38;7.30;98.30
42979;DHT22;28616;44.746;19.678;2023-02-02T13:45:39;7.30;98.60
42979;DHT22;28616;44.746;19.678;2023-02-02T13:56:31;7.20;98.00
42979;DHT22;28616;44.746;19.678;2023-02-02T14:01:47;7.10;99.10
42979;DHT22;28616;44.746;19.678;2023-02-02T14:04:27;7.10;98.80
42979;DHT22;28616;44.746;19.678;2023-02-02T14:07:03;7.10;99.00
42979;DHT22;28616;44.746;19.678;2023-02-02T14:09:33;7.10;99.50
42979;DHT22;28616;44.746;19.678;2023-02-02T14:12:05;7.10;99.90
42979;DHT22;28616;44.746;19.678;2023-02-02T14:14:32;7.00;99.90
42979;DHT22;28616;44.746;19.678;2023-02-02T14:20:01;6.90;99.90
42979;DHT22;28616;44.746;19.678;2023-02-02T14:22:39;6.90;99.90
42979;DHT22;28616;44.746;19.678;2023-02-02T14:28:00;6.80;99.90
42979;DHT22;28616;44.746;19.678;2023-02-02T14:31:14;6.80;99.90
42979;DHT22;28616;44.746;19.678;2023-02-02T14:33:39;6.80;99.90
42979;DHT22;28616;44.746;19.678;2023-02-02T14:36:13;6.80;99.90
42979;DHT22;28616;44.746;19.678;2023-02-02T14:38:54;6.80;99.90
42979;DHT22;28616;44.746;19.678;2023-02-02T14:41:47;6.80;99.90
42979;DHT22;28616;44.746;19.678;2023-02-02T14:44:34;6.80;99.90
42979;DHT22;28616;44.746;19.678;2023-02-02T14:47:02;6.80;99.90
42979;DHT22;28616;44.746;19.678;2023-02-02T14:49:33;6.80;99.90
42979;DHT22;28616;44.746;19.678;2023-02-02T14:52:00;6.80;99.90
42979;DHT22;28616;44.746;19.678;2023-02-02T14:54:36;6.70;99.90
42979;DHT22;28616;44.746;19.678;2023-02-02T14:57:27;6.70;99.90
42979;DHT22;28616;44.746;19.678;2023-02-02T14:59:54;6.70;99.90
42979;DHT22;28616;44.746;19.678;2023-02-02T15:02:34;6.70;99.90
42979;DHT22;28616;44.746;19.678;2023-02-02T15:08:23;6.60;99.90
42979;DHT22;28616;44.746;19.678;2023-02-02T15:13:23;6.50;99.90
42979;DHT22;28616;44.746;19.678;2023-02-02T15:16:00;6.50;99.90
42979;DHT22;28616;44.746;19.678;2023-02-02T15:18:33;6.50;99.90
42979;DHT22;28616;44.746;19.678;2023-02-02T15:21:04;6.40;99.90
42979;DHT22;28616;44.746;19.678;2023-02-02T15:23:43;6.40;99.90
42979;DHT22;28616;44.746;19.678;2023-02-02T15:33:55;6.20;99.90
42979;DHT22;28616;44.746;19.678;2023-02-02T15:36:22;6.20;99.90
42979;DHT22;28616;44.746;19.678;2023-02-02T15:38:52;6.20;99.90
42979;DHT22;28616;44.746;19.678;2023-02-02T15:41:26;6.10;99.90
42979;DHT22;28616;44.746;19.678;2023-02-02T15:43:57;6.10;99.90
42979;DHT22;28616;44.746;19.678;2023-02-02T15:46:25;6.00;99.90
42979;DHT22;28616;44.746;19.678;2023-02-02T15:49:15;6.00;99.90
42979;DHT22;28616;44.746;19.678;2023-02-02T15:51:48;5.90;99.90
42979;DHT22;28616;44.746;19.678;2023-02-02T15:54:23;5.90;99.90
42979;DHT22;28616;44.746;19.678;2023-02-02T15:56:49;5.80;99.90
42979;DHT22;28616;44.746;19.678;2023-02-02T15:59:21;5.80;99.90
42979;DHT22;28616;44.746;19.678;2023-02-02T16:04:43;5.70;99.90
42979;DHT22;28616;44.746;19.678;2023-02-02T16:07:16;5.70;99.90
42979;DHT22;28616;44.746;19.678;2023-02-02T16:09:43;5.60;99.90
42979;DHT22;28616;44.746;19.678;2023-02-02T16:12:15;5.60;99.90
42979;DHT22;28616;44.746;19.678;2023-02-02T16:14:49;5.50;99.90
42979;DHT22;28616;44.746;19.678;2023-02-02T16:17:19;5.50;99.90
42979;DHT22;28616;44.746;19.678;2023-02-02T16:19:46;5.50;99.90
42979;DHT22;28616;44.746;19.678;2023-02-02T16:22:21;5.50;99.90
42979;DHT22;28616;44.746;19.678;2023-02-02T16:24:59;5.50;99.90
42979;DHT22;28616;44.746;19.678;2023-02-02T16:27:26;5.50;99.90
42979;DHT22;28616;44.746;19.678;2023-02-02T16:29:56;5.40;99.90
42979;DHT22;28616;44.746;19.678;2023-02-02T16:32:28;5.40;99.90
42979;DHT22;28616;44.746;19.678;2023-02-02T16:34:54;5.40;99.90
42979;DHT22;28616;44.746;19.678;2023-02-02T16:37:24;5.40;99.90
42979;DHT22;28616;44.746;19.678;2023-02-02T16:39:55;5.40;99.90
42979;DHT22;28616;44.746;19.678;2023-02-02T16:42:26;5.40;99.90
42979;DHT22;28616;44.746;19.678;2023-02-02T16:44:54;5.40;99.90
42979;DHT22;28616;44.746;19.678;2023-02-02T16:52:19;5.60;99.90
42979;DHT22;28616;44.746;19.678;2023-02-02T16:54:55;5.50;99.90
42979;DHT22;28616;44.746;19.678;2023-02-02T16:57:27;5.60;99.90
42979;DHT22;28616;44.746;19.678;2023-02-02T17:00:05;5.60;99.90
42979;DHT22;28616;44.746;19.678;2023-02-02T17:02:37;5.60;99.90
42979;DHT22;28616;44.746;19.678;2023-02-02T17:05:05;5.60;99.90
42979;DHT22;28616;44.746;19.678;2023-02-02T17:07:33;5.60;99.90
42979;DHT22;28616;44.746;19.678;2023-02-02T17:12:38;5.70;99.90
42979;DHT22;28616;44.746;19.678;2023-02-02T17:15:25;5.70;99.90
42979;DHT22;28616;44.746;19.678;2023-02-02T17:17:53;5.70;99.90
42979;DHT22;28616;44.746;19.678;2023-02-02T17:20:19;5.70;99.90
42979;DHT22;28616;44.746;19.678;2023-02-02T17:22:50;5.70;99.90
42979;DHT22;28616;44.746;19.678;2023-02-02T17:25:40;5.70;99.90
42979;DHT22;28616;44.746;19.678;2023-02-02T17:28:10;5.70;99.90
42979;DHT22;28616;44.746;19.678;2023-02-02T17:30:39;5.70;99.90
42979;DHT22;28616;44.746;19.678;2023-02-02T17:33:13;5.60;99.90
42979;DHT22;28616;44.746;19.678;2023-02-02T17:35:39;5.60;99.90
42979;DHT22;28616;44.746;19.678;2023-02-02T17:38:05;5.60;99.90
42979;DHT22;28616;44.746;19.678;2023-02-02T17:40:32;5.60;99.90
42979;DHT22;28616;44.746;19.678;2023-02-02T17:42:58;5.50;99.90
42979;DHT22;28616;44.746;19.678;2023-02-02T17:45:42;5.50;99.90
42979;DHT22;28616;44.746;19.678;2023-02-02T17:48:11;5.50;99.90
42979;DHT22;28616;44.746;19.678;2023-02-02T17:50:38;5.60;99.90
42979;DHT22;28616;44.746;19.678;2023-02-02T17:53:04;5.60;99.90
42979;DHT22;28616;44.746;19.678;2023-02-02T17:55:32;5.60;99.90
42979;DHT22;28616;44.746;19.678;2023-02-02T17:58:05;5.70;99.90
42979;DHT22;28616;44.746;19.678;2023-02-02T18:00:32;5.70;99.90
42979;DHT22;28616;44.746;19.678;2023-02-02T18:03:06;5.60;99.90
42979;DHT22;28616;44.746;19.678;2023-02-02T18:05:34;5.60;99.90
42979;DHT22;28616;44.746;19.678;2023-02-02T18:08:01;5.60;99.90
42979;DHT22;28616;44.746;19.678;2023-02-02T18:10:27;5.60;99.90
42979;DHT22;28616;44.746;19.678;2023-02-02T18:12:55;5.50;99.90
42979;DHT22;28616;44.746;19.678;2023-02-02T18:15:21;5.50;99.90
42979;DHT22;28616;44.746;19.678;2023-02-02T18:17:47;5.50;99.90
42979;DHT22;28616;44.746;19.678;2023-02-02T18:20:14;5.50;99.90
42979;DHT22;28616;44.746;19.678;2023-02-02T18:22:40;5.50;99.90
42979;DHT22;28616;44.746;19.678;2023-02-02T18:25:09;5.50;99.90
42979;DHT22;28616;44.746;19.678;2023-02-02T18:27:35;5.50;99.90
42979;DHT22;28616;44.746;19.678;2023-02-02T18:30:02;5.50;99.90
42979;DHT22;28616;44.746;19.678;2023-02-02T18:32:28;5.50;99.90
42979;DHT22;28616;44.746;19.678;2023-02-02T18:34:53;5.50;99.90